Time;durP1;ratioP1;P1;durP2;ratioP2;P2;SDS_P1;SDS_P2;PMS_P1;PMS_P2;Temp;Humidity;BMP_temperature;BMP_pressure;BME280_temperature;BME280_humidity;BME280_pressure;Samples;Min_cycle;Max_cycle;Signal;HPM_P1;HPM_P2
2024/04/02 00:02:08;;;;;;;156.00;77.00;;;;;;;15.86;100.00;98379.73;646559;1298;545950;-82
2024/04/02 00:17:12;;;;;;;148.60;61.10;;;;;;;15.78;100.00;98403.07;666303;1275;139018;-84
2024/04/02 00:32:15;;;;;;;65.00;36.70;;;;;;;15.76;100.00;98386.01;667493;1278;139159;-82
2024/04/02 00:47:18;;;;;;;17.30;6.00;;;;;;;15.66;100.00;98434.34;675287;1277;139103;-84
2024/04/02 01:02:21;;;;;;;12.40;5.40;;;;;;;15.47;100.00;98427.41;671733;1265;138880;-84
2024/04/02 01:17:25;;;;;;;19.30;4.90;;;;;;;15.26;100.00;98457.12;665974;1263;138923;-82
2024/04/02 01:32:29;;;;;;;13.70;5.40;;;;;;;15.17;100.00;98442.48;666329;1259;139434;-80
2024/04/02 01:47:33;;;;;;;10.60;4.70;;;;;;;14.99;100.00;98422.09;666090;1264;138764;-81
2024/04/02 02:02:36;;;;;;;13.00;4.40;;;;;;;14.78;100.00;98428.54;665760;1264;138852;-80
2024/04/02 02:17:39;;;;;;;8.20;4.70;;;;;;;14.57;100.00;98426.91;665305;1275;138969;-81
2024/04/02 02:32:42;;;;;;;8.00;4.80;;;;;;;14.06;100.00;98445.65;666754;1266;138850;-83
2024/04/02 02:47:45;;;;;;;10.20;5.20;;;;;;;13.82;100.00;98440.48;666041;1263;139117;-80
2024/04/02 03:02:48;;;;;;;10.60;4.60;;;;;;;14.11;100.00;98419.98;666575;1263;140749;-81
2024/04/02 03:17:52;;;;;;;7.50;5.10;;;;;;;14.04;100.00;98415.64;666102;1264;139872;-81
2024/04/02 03:32:55;;;;;;;10.60;6.30;;;;;;;13.94;100.00;98416.29;666294;1259;139483;-80
2024/04/02 03:47:58;;;;;;;10.00;6.40;;;;;;;13.84;100.00;98432.80;666589;1265;139668;-82
2024/04/02 04:03:01;;;;;;;9.20;5.40;;;;;;;13.83;100.00;98440.41;668804;1265;139805;-80
2024/04/02 04:18:04;;;;;;;8.30;5.90;;;;;;;13.76;100.00;98430.11;665849;1264;139027;-81
2024/04/02 04:33:07;;;;;;;10.10;5.50;;;;;;;13.68;100.00;98422.64;665919;1265;139323;-83
2024/04/02 04:48:11;;;;;;;10.50;5.80;;;;;;;13.50;100.00;98434.83;665388;1264;142740;-80
2024/04/02 05:03:14;;;;;;;7.70;5.70;;;;;;;13.35;100.00;98455.51;666900;1260;139604;-82
2024/04/02 05:18:17;;;;;;;10.70;5.80;;;;;;;13.23;100.00;98453.09;668279;1265;140027;-82
2024/04/02 05:33:20;;;;;;;7.80;5.40;;;;;;;13.38;100.00;98449.22;666911;1263;138964;-80
2024/04/02 05:48:23;;;;;;;15.80;9.00;;;;;;;13.41;100.00;98455.16;665061;1265;139055;-81
2024/04/02 06:03:26;;;;;;;9.90;7.00;;;;;;;13.40;100.00;98460.38;665936;1265;139122;-81
2024/04/02 06:18:29;;;;;;;13.40;8.10;;;;;;;13.30;100.00;98468.42;666230;1263;139227;-81
2024/04/02 06:33:32;;;;;;;11.00;7.00;;;;;;;13.34;100.00;98466.83;666699;1266;140602;-81
2024/04/02 06:48:35;;;;;;;11.00;7.40;;;;;;;13.24;100.00;98466.69;665719;1263;139668;-80
2024/04/02 07:03:39;;;;;;;9.30;6.40;;;;;;;13.18;100.00;98474.17;666807;1265;138934;-81
2024/04/02 07:18:43;;;;;;;10.80;7.30;;;;;;;13.17;100.00;98480.28;666472;1275;139054;-82
2024/04/02 07:33:46;;;;;;;10.20;6.50;;;;;;;13.41;100.00;98487.73;666067;1266;139696;-82
2024/04/02 07:48:50;;;;;;;10.40;7.00;;;;;;;13.43;100.00;98502.61;664916;1265;138960;-78
2024/04/02 08:03:55;;;;;;;14.10;8.40;;;;;;;13.39;100.00;98513.81;665919;1266;139032;-81
2024/04/02 08:19:00;;;;;;;11.10;6.00;;;;;;;13.47;100.00;98535.98;665853;1260;139027;-79
2024/04/02 08:34:04;;;;;;;8.90;5.50;;;;;;;13.42;100.00;98554.19;665812;1266;139581;-81
2024/04/02 08:49:07;;;;;;;8.90;5.30;;;;;;;13.55;99.98;98564.88;666174;1259;139561;-80
2024/04/02 09:04:14;;;;;;;11.70;7.00;;;;;;;13.63;99.16;98579.66;666262;1275;138735;-80
2024/04/02 09:19:17;;;;;;;10.20;6.40;;;;;;;13.76;97.73;98585.54;666001;1279;139437;-80
2024/04/02 09:34:21;;;;;;;9.10;6.20;;;;;;;13.80;96.21;98589.45;669015;1263;139021;-80
2024/04/02 09:49:25;;;;;;;14.80;8.90;;;;;;;14.11;95.17;98592.31;668662;1263;139319;-80
2024/04/02 10:04:33;;;;;;;;;;;;;;;14.49;93.71;98590.19;666816;1265;138617;-80
2024/04/02 10:19:43;;;;;;;30.80;15.40;;;;;;;14.42;91.96;98593.84;666813;1273;125548;-79
2024/04/02 10:34:46;;;;;;;18.50;11.00;;;;;;;14.56;90.92;98604.05;676017;1273;139964;-79
2024/04/02 10:49:50;;;;;;;11.30;6.60;;;;;;;14.73;87.92;98633.30;669793;1269;139034;-81
2024/04/02 11:04:55;;;;;;;14.40;7.10;;;;;;;15.00;86.30;98641.40;665819;1263;139040;-83
2024/04/02 11:19:58;;;;;;;7.00;4.50;;;;;;;14.95;84.86;98646.67;665681;1273;139092;-79
2024/04/02 11:35:16;;;;;;;13.60;8.00;;;;;;;14.63;83.46;98652.73;666523;1264;139637;-80
2024/04/02 11:50:19;;;;;;;6.60;4.30;;;;;;;14.58;83.43;98675.02;665490;1273;139747;-79
2024/04/02 12:05:23;;;;;;;6.90;4.10;;;;;;;14.86;80.51;98683.02;667167;1261;197699;-81
2024/04/02 12:20:26;;;;;;;5.50;3.30;;;;;;;14.93;78.13;98682.27;674130;1263;139980;-80
2024/04/02 12:35:30;;;;;;;5.50;3.50;;;;;;;14.61;76.65;98685.70;671926;1263;141092;-79
2024/04/02 12:50:33;;;;;;;8.10;4.10;;;;;;;14.93;76.39;98691.43;670941;1270;139596;-80
2024/04/02 13:05:40;;;;;;;4.90;3.20;;;;;;;14.92;74.78;98701.02;672341;1264;139979;-81
2024/04/02 13:20:43;;;;;;;54.90;27.10;;;;;;;14.98;74.15;98706.77;668528;1263;139758;-80
2024/04/02 13:35:47;;;;;;;10.70;6.60;;;;;;;14.81;73.19;98718.15;667307;1262;139670;-80
2024/04/02 13:51:08;;;;;;;5.50;3.90;;;;;;;14.51;73.46;98730.23;666777;1257;139110;-81
2024/04/02 14:06:13;;;;;;;7.70;4.90;;;;;;;14.46;73.40;98718.61;669470;1264;139794;-81
2024/04/02 14:21:17;;;;;;;4.90;3.00;;;;;;;14.63;73.55;98718.92;666342;1259;139904;-80
2024/04/02 14:36:23;;;;;;;10.30;6.20;;;;;;;14.82;73.59;98717.05;666438;1263;139826;-80
2024/04/02 14:51:30;;;;;;;15.00;6.60;;;;;;;14.73;73.67;98708.52;666738;1261;139217;-77
2024/04/02 15:06:33;;;;;;;6.90;5.20;;;;;;;14.87;74.21;98697.20;670185;1257;139076;-80
2024/04/02 15:21:37;;;;;;;24.80;12.70;;;;;;;14.77;74.74;98690.86;668299;1263;139446;-81
2024/04/02 15:36:41;;;;;;;16.60;7.40;;;;;;;14.71;74.93;98686.58;667006;1262;140288;-79
2024/04/02 15:51:45;;;;;;;20.30;10.60;;;;;;;14.88;74.10;98684.20;667346;1264;139200;-80
2024/04/02 16:06:48;;;;;;;26.10;9.30;;;;;;;14.87;71.98;98681.17;671208;1257;140534;-79
2024/04/02 16:21:53;;;;;;;20.90;11.50;;;;;;;14.74;71.16;98686.88;672384;1263;139463;-80
2024/04/02 16:36:57;;;;;;;77.70;35.90;;;;;;;14.52;70.49;98681.13;670168;1263;139269;-79
2024/04/02 16:52:01;;;;;;;92.20;36.50;;;;;;;14.34;70.86;98691.18;671102;1259;139441;-80
2024/04/02 17:07:04;;;;;;;33.20;16.70;;;;;;;14.17;71.53;98693.96;671218;1262;139602;-82
2024/04/02 17:22:08;;;;;;;17.70;8.20;;;;;;;14.03;71.89;98687.14;669753;1262;140131;-83
2024/04/02 17:37:14;;;;;;;12.30;6.30;;;;;;;13.96;72.40;98686.61;673102;1262;139591;-82
2024/04/02 17:52:17;;;;;;;11.80;6.50;;;;;;;13.82;72.69;98687.85;669609;1263;140396;-82
2024/04/02 18:07:20;;;;;;;49.40;14.60;;;;;;;13.80;72.65;98690.27;671533;1260;139014;-81
2024/04/02 18:22:23;;;;;;;70.80;21.30;;;;;;;13.78;72.18;98688.08;671335;1273;139362;-80
2024/04/02 18:37:27;;;;;;;31.30;10.80;;;;;;;13.79;71.50;98688.77;670279;1263;139802;-82
2024/04/02 18:52:30;;;;;;;23.00;7.90;;;;;;;13.62;71.50;98683.73;669559;1262;139497;-83
2024/04/02 19:07:33;;;;;;;20.70;8.10;;;;;;;13.39;71.36;98674.06;668731;1261;139242;-82
2024/04/02 19:22:38;;;;;;;22.00;9.80;;;;;;;13.53;70.79;98662.25;666885;1262;139252;-84
2024/04/02 19:37:41;;;;;;;57.10;19.20;;;;;;;13.63;70.04;98652.86;668670;1262;139768;-82
2024/04/02 19:52:45;;;;;;;34.40;11.80;;;;;;;13.66;69.65;98648.77;666423;1262;140476;-83
2024/04/02 20:07:48;;;;;;;26.40;9.40;;;;;;;13.57;70.44;98646.41;668824;1262;139565;-87
2024/04/02 20:22:51;;;;;;;9.80;4.70;;;;;;;13.24;71.37;98627.72;676771;1259;138460;-83
2024/04/02 20:37:54;;;;;;;6.60;3.20;;;;;;;12.93;73.38;98625.77;671145;1262;138579;-84
2024/04/02 20:52:58;;;;;;;3.60;2.00;;;;;;;12.71;75.30;98634.26;667124;1259;138797;-84
2024/04/02 21:08:01;;;;;;;5.20;3.30;;;;;;;12.61;76.63;98648.41;667819;1262;138768;-84
2024/04/02 21:23:04;;;;;;;9.10;3.30;;;;;;;12.53;78.28;98670.10;667431;1262;138770;-83
2024/04/02 21:38:07;;;;;;;7.60;3.90;;;;;;;12.47;78.99;98690.76;666882;1263;138731;-83
2024/04/02 21:53:17;;;;;;;7.40;3.60;;;;;;;12.31;78.89;98684.31;666522;1265;139915;-84
2024/04/02 22:08:20;;;;;;;6.20;3.50;;;;;;;12.18;77.64;98685.52;665983;1259;138673;-83
2024/04/02 22:23:23;;;;;;;6.00;3.70;;;;;;;12.17;77.54;98689.34;666958;1262;139161;-83
2024/04/02 22:38:26;;;;;;;8.70;4.10;;;;;;;11.36;82.55;98707.89;666652;1262;138806;-82
2024/04/02 22:53:30;;;;;;;9.20;4.70;;;;;;;11.65;82.25;98718.42;666329;1261;138997;-84
2024/04/02 23:08:36;;;;;;;9.30;5.80;;;;;;;11.66;81.35;98719.70;671805;1263;139204;-82
2024/04/02 23:23:39;;;;;;;9.50;4.80;;;;;;;11.54;81.47;98729.86;675593;1262;138945;-83
2024/04/02 23:38:42;;;;;;;9.30;4.40;;;;;;;11.38;82.57;98722.72;668620;1262;139068;-84
2024/04/02 23:53:46;;;;;;;8.50;4.20;;;;;;;11.30;82.84;98732.17;670214;1260;139230;-82
